This is the latest recevied weather packets stored in our database for station/object KK6LZB. If no packets are shown the sender has not sent any weather packets the latest 1 day(s).
| Time | Temp. | Humidity | Pressure | Rain* | Wind** | Luminosity | Snow |
|---|---|---|---|---|---|---|---|
| 1778108766 | 21.67° C | 58% | 1017.9 hPa | 0 mm | - | 425 W/m² | - |
| 1778106339 | 23.89° C | 48% | 1018.5 hPa | 0 mm | - | 525 W/m² | - |
| 1778105733 | 23.33° C | 50% | 1018.6 hPa | 0 mm | - | 550 W/m² | - |
| 1778104215 | 22.22° C | 57% | 1018.6 hPa | 0 mm | - | 604 W/m² | - |
| 1778103004 | 23.33° C | 58% | 1018.7 hPa | 0 mm | - | 640 W/m² | - |
| 1778102395 | 22.78° C | 61% | 1018.8 hPa | 0 mm | - | 657 W/m² | - |
| 1778101485 | 21.11° C | 68% | 1019 hPa | 0 mm | - | 678 W/m² | - |
| 1778101182 | 21.11° C | 68% | 1019 hPa | 0 mm | - | 685 W/m² | - |
| 1778099061 | 21.67° C | 66% | 1019.5 hPa | 0 mm | - | 718 W/m² | - |
| 1778098455 | 21.11° C | 68% | 1019.5 hPa | 0 mm | - | 725 W/m² | - |
| 1778096332 | 21.11° C | 69% | 1019.7 hPa | 0 mm | - | 729 W/m² | - |
| 1778095725 | 20° C | 71% | 1019.9 hPa | 0 mm | - | 728 W/m² | - |
| 1778095422 | 20° C | 71% | 1019.9 hPa | 0 mm | - | 725 W/m² | - |
| 1778094815 | 20° C | 70% | 1020.2 hPa | 0 mm | - | 721 W/m² | - |
| 1778092997 | 20° C | 74% | 1020.3 hPa | 0 mm | - | 699 W/m² | - |
| 1778091481 | 18.89° C | 75% | 1020.5 hPa | 0 mm | - | 668 W/m² | - |
| 1778090876 | 19.44° C | 74% | 1020.6 hPa | 0 mm | - | 652 W/m² | - |
| 1778090268 | 19.44° C | 74% | 1020.6 hPa | 0 mm | - | 635 W/m² | - |
| 1778089965 | 18.89° C | 77% | 1020.3 hPa | 0 mm | - | 629 W/m² | - |
| 1778088451 | 17.22° C | 79% | 1020.3 hPa | 0 mm | - | 514 W/m² | - |
| 1778086936 | 18.89° C | 77% | 1020.4 hPa | 0 mm | - | 526 W/m² | - |
| 1778085117 | 17.22° C | 79% | 1020.6 hPa | 0 mm | - | 89 W/m² | - |
| 1778084208 | 16.67° C | 80% | 1020.7 hPa | 0 mm | - | 464 W/m² | - |
| 1778083299 | 16.11° C | 84% | 1020.5 hPa | 0 mm | - | 92 W/m² | - |
| 1778082694 | 15° C | 87% | 1020.4 hPa | 0 mm | - | 41 W/m² | - |
* Rain latest hour (hover to see other rain measurements)
** Current wind speed in m/s (hover to see current wind gust speed)